Creighton, MO (64739)

5:18 PM CST on February 09, 2016 (GMT -0600)
Creighton | | Change Station
CLOSE
Current Station
Personal Weather Station
Location: Creighton, MO
Elevation: 804 ft
Nearby Weather Stations

Elev 804 ft 38.49 °N, 94.08 °W | Updated 21 seconds ago

Clear
Clear
27.7 °F
Feels Like 28 °F
N
2.7
Wind Variable Wind from West

Today
High -- | Low -- °F
--% Chance of Precip.
Yesterday
High -- | Low -- °F
Precip. -- in
Pressure 30.20 in
Visibility 10.0 miles
Clouds Clear
Windchill 28 °F
Dew Point 7 °F
Humidity 40%
Rainfall 0.00 in
Snow Depth Not available.
7:14 AM 5:47 PM
New Moon, 2% visible
METAR KRCM 092255Z AUTO 30013G20KT 10SM CLR M02/M15 A3020 RMK AO2
Pressure 30.20 in
Visibility 10.0 miles
Clouds Clear
Windchill 28 °F
Dew Point 7 °F
Humidity 40%
Rainfall 0.00 in
Snow Depth Not available.
7:14 AM 5:47 PM
New Moon, 2% visible
METAR KRCM 092255Z AUTO 30013G20KT 10SM CLR M02/M15 A3020 RMK AO2

10-Day Weather Forecast

Almanac

Astronomy

Feb. 09, 2016 Rise Set
Actual Time
Civil Twilight
Nautical Twilight
Astronomical Twilight
Moon
Length of Visible Light
Length of Day
Tomorrow will be .
, % of the Moon is Illuminated

Today's Extremes

State Highs State Lows

Community

WunderPhotos

Upload Photos

1,891,728 photos uploaded!

WunderBlog® & News

Nearby

Air Quality

  Air Quality AQ Index Pollutant
Not available.

Snow Depth

Station Depth Elevation

Earthquake Activity

City Distance Mag. Time & Date
Minimum magnitude displayed is 2.5.

Coastal Water Temperatures

Place Temperature

Stations

Nearby Weather Stations

Station Location Temp. Windchill Dew Point Humidity Wind Precip. Elev Updated Type
                   

Watches & Warnings

There are currently no watches in effect.